Terminal Aerodrome Forecast
Issued by NWS Blacksburg, VA

Home | Current Version | Previous Version | Text Only | Print | Product List | Glossary On
Versions: 1 2 3 4 5 6 7 8 9 10 11 12 13 14 15 16 17 18 19 20 21 22 23 24 25 26 27 28 29 30 31 32 33 34
000
FTUS41 KRNK 271233 AAA
TAFDAN
TAF AMD
KDAN 271233Z 2713/2812 32006KT 5SM BR SKC
     FM271400 35008KT P6SM BKN050
     FM272300 33006KT P6SM BKN250
     FM280700 02004KT P6SM BKN040=

USA.gov is the U.S. government's official web portal to all federal, state and local government web resources and services.